Time;durP1;ratioP1;P1;durP2;ratioP2;P2;SDS_P1;SDS_P2;PMS_P1;PMS_P2;Temp;Humidity;BMP_temperature;BMP_pressure;BME280_temperature;BME280_humidity;BME280_pressure;Samples;Min_cycle;Max_cycle;Signal;HPM_P1;HPM_P2
2022/04/24 00:00:01;;;;;;;11.67;10.33;;;12.20;99.90;;;;;;5071794;28;20578;-59
2022/04/24 00:02:28;;;;;;;11.07;9.90;;;12.20;99.90;;;;;;5071657;28;20607;-58
2022/04/24 00:04:55;;;;;;;11.87;10.50;;;12.20;99.90;;;;;;5071506;28;20250;-58
2022/04/24 00:07:21;;;;;;;12.03;10.27;;;12.10;99.90;;;;;;5071764;28;20254;-58
2022/04/24 00:09:49;;;;;;;12.67;10.27;;;12.10;99.90;;;;;;5071692;28;20258;-59
2022/04/24 00:12:17;;;;;;;12.53;10.67;;;12.10;99.90;;;;;;5071498;28;20221;-59
2022/04/24 00:14:44;;;;;;;12.07;9.97;;;12.10;99.90;;;;;;5071778;28;20676;-58
2022/04/24 00:17:12;;;;;;;10.80;9.70;;;12.20;99.90;;;;;;5071500;28;20205;-59
2022/04/24 00:19:38;;;;;;;11.73;10.37;;;12.30;99.90;;;;;;5071570;28;20224;-59
2022/04/24 00:22:06;;;;;;;11.77;10.57;;;12.40;99.90;;;;;;5071695;28;20224;-59
2022/04/24 00:24:32;;;;;;;12.77;10.37;;;12.40;99.90;;;;;;5071778;28;20271;-59
2022/04/24 00:27:01;;;;;;;11.63;10.43;;;12.50;99.90;;;;;;5072059;28;20209;-59
2022/04/24 00:29:27;;;;;;;12.27;9.93;;;12.60;99.90;;;;;;5075914;28;20201;-59
2022/04/24 00:31:54;;;;;;;10.83;9.73;;;12.60;99.90;;;;;;5075732;28;20282;-59
2022/04/24 00:34:21;;;;;;;13.20;9.53;;;12.70;99.90;;;;;;5075621;28;20205;-59
2022/04/24 00:36:48;;;;;;;13.07;10.00;;;12.70;99.90;;;;;;5075041;28;20605;-59
2022/04/24 00:39:15;;;;;;;11.53;9.67;;;12.70;99.90;;;;;;5075230;28;20216;-59
2022/04/24 00:41:46;;;;;;;11.23;9.60;;;12.80;99.90;;;;;;5075179;28;20259;-59
2022/04/24 00:44:14;;;;;;;9.60;8.60;;;12.80;99.90;;;;;;5075320;28;20551;-59
2022/04/24 00:46:42;;;;;;;10.67;9.00;;;12.90;99.90;;;;;;5075150;28;20291;-59
2022/04/24 00:49:09;;;;;;;10.90;9.70;;;12.90;99.90;;;;;;5075296;28;20205;-59
2022/04/24 00:51:37;;;;;;;10.27;9.17;;;12.90;99.90;;;;;;5075090;28;20260;-59
2022/04/24 00:54:06;;;;;;;10.73;8.53;;;12.90;99.90;;;;;;5075121;28;20243;-59
2022/04/24 00:56:33;;;;;;;9.70;8.70;;;12.80;99.90;;;;;;5075015;28;20201;-59
2022/04/24 00:59:02;;;;;;;9.83;8.83;;;12.70;99.90;;;;;;5075110;28;20259;-59
2022/04/24 01:01:30;;;;;;;11.00;9.03;;;12.70;99.90;;;;;;5075001;28;20228;-59
2022/04/24 01:04:00;;;;;;;10.00;8.40;;;12.80;99.90;;;;;;5075160;28;20262;-58
2022/04/24 01:06:27;;;;;;;9.77;8.77;;;12.70;99.90;;;;;;5074912;28;20243;-58
2022/04/24 01:08:54;;;;;;;11.83;8.77;;;12.70;99.90;;;;;;5075058;28;20575;-59
2022/04/24 01:11:21;;;;;;;9.30;8.40;;;12.80;99.90;;;;;;5075129;28;20311;-58
2022/04/24 01:13:47;;;;;;;9.37;8.37;;;12.80;99.90;;;;;;5075214;28;20201;-59
2022/04/24 01:16:15;;;;;;;9.63;8.63;;;12.80;99.90;;;;;;5074608;28;20208;-58
2022/04/24 01:18:43;;;;;;;8.53;7.73;;;12.70;99.90;;;;;;5074990;28;20205;-59
2022/04/24 01:21:11;;;;;;;9.23;8.23;;;12.80;99.90;;;;;;5074357;28;20225;-59
2022/04/24 01:23:39;;;;;;;9.30;8.30;;;12.80;99.90;;;;;;5074724;28;20221;-59
2022/04/24 01:26:06;;;;;;;8.90;8.00;;;12.80;99.90;;;;;;5074268;28;20213;-59
2022/04/24 01:28:33;;;;;;;9.03;8.13;;;12.80;99.90;;;;;;5074640;28;20212;-59
2022/04/24 01:30:59;;;;;;;9.43;8.20;;;12.90;99.90;;;;;;5074405;28;20227;-59
2022/04/24 01:33:28;;;;;;;9.80;8.33;;;12.90;99.90;;;;;;5074655;28;20314;-59
2022/04/24 01:35:55;;;;;;;9.90;8.40;;;12.90;99.90;;;;;;5074442;28;20299;-58
2022/04/24 01:38:23;;;;;;;9.30;8.40;;;13.00;99.90;;;;;;5074304;28;20270;-59
2022/04/24 01:40:49;;;;;;;9.30;8.23;;;13.00;99.90;;;;;;5074367;28;20559;-59
2022/04/24 01:43:16;;;;;;;8.93;7.97;;;12.90;99.90;;;;;;5074162;28;20208;-58
2022/04/24 01:45:43;;;;;;;9.33;8.43;;;12.90;99.90;;;;;;5073985;28;20240;-59
2022/04/24 01:48:10;;;;;;;9.87;8.37;;;12.90;99.90;;;;;;5074047;28;20723;-58
2022/04/24 01:50:37;;;;;;;9.27;8.17;;;12.90;99.90;;;;;;5074017;28;20201;-58
2022/04/24 01:53:04;;;;;;;9.53;8.57;;;12.90;99.90;;;;;;5088417;22;20221;-55
2022/04/24 01:55:32;;;;;;;9.97;8.93;;;13.00;99.90;;;;;;5073959;28;20197;-55
2022/04/24 01:57:59;;;;;;;9.90;8.90;;;13.10;99.90;;;;;;5073949;28;20205;-55
2022/04/24 02:00:26;;;;;;;10.00;8.13;;;13.10;99.90;;;;;;5073794;28;20704;-55
2022/04/24 02:02:52;;;;;;;9.53;8.57;;;13.20;99.90;;;;;;5074219;28;20225;-55
2022/04/24 02:05:19;;;;;;;10.60;8.87;;;13.30;99.90;;;;;;5073696;28;20604;-55
2022/04/24 02:07:46;;;;;;;9.70;8.70;;;13.30;99.90;;;;;;5073894;28;20205;-56
2022/04/24 02:10:13;;;;;;;9.80;8.80;;;13.30;99.90;;;;;;5073712;28;20730;-56
2022/04/24 02:12:41;;;;;;;9.23;8.30;;;13.30;99.90;;;;;;5073880;28;20232;-55
2022/04/24 02:15:08;;;;;;;11.27;9.50;;;13.40;99.90;;;;;;5073437;28;20208;-57
2022/04/24 02:17:35;;;;;;;9.50;8.40;;;13.40;99.90;;;;;;5074118;28;20543;-56
2022/04/24 02:20:02;;;;;;;10.60;9.60;;;13.50;99.90;;;;;;5073656;28;20229;-56
2022/04/24 02:22:32;;;;;;;10.17;9.10;;;13.60;99.90;;;;;;5073658;28;20610;-57
2022/04/24 02:24:59;;;;;;;10.53;9.30;;;13.70;99.90;;;;;;5073787;28;20299;-57
2022/04/24 02:27:26;;;;;;;11.63;9.60;;;13.70;99.90;;;;;;5073292;28;20209;-56
2022/04/24 02:29:54;;;;;;;10.43;9.20;;;13.80;99.90;;;;;;5074419;28;20205;-56
2022/04/24 02:32:20;;;;;;;11.30;9.47;;;13.80;99.90;;;;;;5074439;28;20274;-55
2022/04/24 02:34:47;;;;;;;10.87;9.30;;;13.80;99.90;;;;;;5075270;28;20659;-57
2022/04/24 02:37:14;;;;;;;11.73;9.40;;;13.90;99.90;;;;;;5073394;28;20270;-57
2022/04/24 02:39:40;;;;;;;10.63;9.53;;;13.90;99.90;;;;;;5073271;28;20205;-56
2022/04/24 02:42:07;;;;;;;10.13;8.97;;;13.90;99.90;;;;;;5073201;28;20225;-57
2022/04/24 02:44:34;;;;;;;10.57;9.50;;;13.90;99.90;;;;;;5073062;28;20630;-57
2022/04/24 02:47:02;;;;;;;11.57;10.13;;;13.90;99.90;;;;;;5072937;28;20304;-54
2022/04/24 02:49:29;;;;;;;12.50;10.40;;;13.80;99.90;;;;;;5072202;28;20680;-54
2022/04/24 02:51:56;;;;;;;11.90;10.50;;;13.80;99.90;;;;;;5072813;28;20641;-55
2022/04/24 02:54:22;;;;;;;12.10;10.83;;;13.70;99.90;;;;;;5072816;28;20627;-55
2022/04/24 02:56:49;;;;;;;11.77;10.57;;;13.60;99.90;;;;;;5072478;28;20695;-55
2022/04/24 02:59:16;;;;;;;12.53;11.17;;;13.50;99.90;;;;;;5073154;28;20208;-55
2022/04/24 03:01:44;;;;;;;11.37;10.10;;;13.50;99.90;;;;;;5072576;28;20258;-55
2022/04/24 03:04:12;;;;;;;11.87;10.67;;;13.50;99.90;;;;;;5073070;28;20205;-55
2022/04/24 03:06:39;;;;;;;12.40;10.73;;;13.50;99.90;;;;;;5072830;28;20240;-55
2022/04/24 03:09:06;;;;;;;11.53;10.43;;;13.50;99.90;;;;;;5072899;28;20661;-55
2022/04/24 03:11:33;;;;;;;11.50;10.40;;;13.50;99.90;;;;;;5074883;28;20700;-55
2022/04/24 03:13:59;;;;;;;11.27;10.17;;;13.40;99.90;;;;;;5074861;28;20586;-55
2022/04/24 03:16:26;;;;;;;12.47;10.80;;;13.40;99.90;;;;;;5072546;28;20721;-55
2022/04/24 03:18:53;;;;;;;10.83;9.73;;;13.30;99.90;;;;;;5072533;28;20296;-55
2022/04/24 03:21:21;;;;;;;11.23;10.03;;;13.30;99.90;;;;;;5072482;28;20236;-55
2022/04/24 03:23:48;;;;;;;13.23;10.73;;;13.20;99.90;;;;;;5072414;28;20200;-55
2022/04/24 03:26:14;;;;;;;10.77;9.67;;;13.20;99.90;;;;;;5071962;28;20211;-56
2022/04/24 03:28:42;;;;;;;14.13;12.73;;;13.20;99.90;;;;;;5072513;28;20209;-57
2022/04/24 03:31:09;;;;;;;11.70;10.60;;;13.20;99.90;;;;;;5072566;28;20212;-57
2022/04/24 03:33:36;;;;;;;14.57;12.97;;;13.10;99.90;;;;;;5072299;28;20208;-56
2022/04/24 03:36:03;;;;;;;13.50;11.37;;;13.10;99.90;;;;;;5071994;28;20201;-57
2022/04/24 03:38:31;;;;;;;11.90;10.77;;;13.10;99.90;;;;;;5072312;28;20605;-54
2022/04/24 03:40:57;;;;;;;11.20;10.10;;;13.10;99.90;;;;;;5071919;28;20266;-56
2022/04/24 03:43:24;;;;;;;11.20;10.10;;;13.00;99.90;;;;;;5072397;28;20216;-56
2022/04/24 03:45:51;;;;;;;13.17;11.43;;;12.90;99.90;;;;;;5071970;28;20299;-57
2022/04/24 03:48:17;;;;;;;13.27;11.27;;;12.90;99.90;;;;;;5072005;28;20231;-56
2022/04/24 03:50:44;;;;;;;12.30;10.57;;;12.90;99.90;;;;;;5071978;28;20201;-56
2022/04/24 03:53:12;;;;;;;13.60;10.30;;;12.90;99.90;;;;;;5071895;28;20233;-56
2022/04/24 03:55:40;;;;;;;12.07;10.80;;;13.00;99.90;;;;;;5071700;28;20871;-57
2022/04/24 03:58:07;;;;;;;11.63;9.90;;;13.00;99.90;;;;;;5072253;28;20209;-55
2022/04/24 04:00:34;;;;;;;12.53;11.03;;;13.00;99.90;;;;;;5071815;28;20636;-55
2022/04/24 04:03:00;;;;;;;11.67;10.47;;;13.00;99.90;;;;;;5071696;28;20738;-55
2022/04/24 04:05:27;;;;;;;12.37;10.90;;;13.00;99.90;;;;;;5071686;28;20204;-55
2022/04/24 04:07:54;;;;;;;11.67;10.57;;;13.10;99.90;;;;;;5071740;28;20209;-56
2022/04/24 04:10:21;;;;;;;12.37;11.07;;;13.20;99.90;;;;;;5072071;28;20231;-56
2022/04/24 04:12:50;;;;;;;12.50;11.30;;;13.20;99.90;;;;;;5071920;28;20225;-56
2022/04/24 04:15:16;;;;;;;11.37;9.97;;;13.20;99.90;;;;;;5072339;28;20213;-56
2022/04/24 04:17:44;;;;;;;13.07;11.57;;;13.20;99.90;;;;;;5071583;28;20703;-56
2022/04/24 04:20:12;;;;;;;12.03;10.80;;;13.10;99.90;;;;;;5071747;28;20293;-56
2022/04/24 04:22:48;;;;;;;11.70;10.50;;;13.10;99.90;;;;;;5071797;28;20708;-56
2022/04/24 04:25:14;;;;;;;12.60;11.30;;;13.00;99.90;;;;;;5071966;28;20200;-56
2022/04/24 04:27:41;;;;;;;12.80;11.50;;;12.90;99.90;;;;;;5071486;28;20201;-56
2022/04/24 04:30:10;;;;;;;12.43;11.10;;;12.90;99.90;;;;;;5071714;28;20205;-57
2022/04/24 04:32:37;;;;;;;13.87;11.67;;;12.80;99.90;;;;;;5071508;28;20294;-56
2022/04/24 04:35:05;;;;;;;12.43;11.00;;;12.80;99.90;;;;;;5071438;28;20295;-57
2022/04/24 04:37:32;;;;;;;14.83;13.27;;;12.90;99.90;;;;;;5071527;28;20232;-56
2022/04/24 04:39:59;;;;;;;13.60;12.20;;;12.90;99.90;;;;;;5071780;28;20205;-56
2022/04/24 04:42:26;;;;;;;13.13;11.83;;;13.00;99.90;;;;;;5071409;28;20256;-56
2022/04/24 04:44:52;;;;;;;13.10;11.80;;;13.10;99.90;;;;;;5071368;28;20212;-56
2022/04/24 04:47:21;;;;;;;14.27;12.73;;;13.10;99.90;;;;;;5070998;28;20621;-56
2022/04/24 04:49:47;;;;;;;14.27;12.73;;;13.10;99.90;;;;;;5071641;28;20232;-56
2022/04/24 04:52:14;;;;;;;14.37;12.70;;;13.10;99.90;;;;;;5071314;28;20233;-56
2022/04/24 04:54:41;;;;;;;15.40;13.80;;;13.10;99.90;;;;;;5071455;28;20208;-56
2022/04/24 04:57:08;;;;;;;16.50;14.80;;;13.10;99.90;;;;;;5070907;28;20733;-56
2022/04/24 04:59:34;;;;;;;17.37;14.97;;;13.00;99.90;;;;;;5071238;28;20213;-57
2022/04/24 05:02:01;;;;;;;20.93;15.47;;;12.90;99.90;;;;;;5071026;28;20232;-56
2022/04/24 05:04:30;;;;;;;19.93;16.40;;;12.90;99.90;;;;;;5071508;28;20212;-56
2022/04/24 05:06:56;;;;;;;14.80;11.93;;;12.80;99.90;;;;;;5071182;28;20205;-56
2022/04/24 05:09:24;;;;;;;12.37;10.40;;;12.60;99.90;;;;;;5071186;28;20209;-56
2022/04/24 05:11:51;;;;;;;10.13;7.13;;;12.50;99.90;;;;;;5071031;28;20225;-56
2022/04/24 05:14:18;;;;;;;7.67;5.83;;;12.40;99.90;;;;;;5073953;28;20256;-57
2022/04/24 05:16:45;;;;;;;7.00;5.07;;;12.30;99.90;;;;;;5074489;28;20209;-57
2022/04/24 05:19:11;;;;;;;6.43;3.97;;;12.10;99.90;;;;;;5074757;28;20706;-57
2022/04/24 05:21:39;;;;;;;5.43;4.33;;;12.10;99.90;;;;;;5074631;28;20700;-57
2022/04/24 05:24:07;;;;;;;4.23;3.30;;;12.10;99.90;;;;;;5074643;28;20672;-57
2022/04/24 05:26:33;;;;;;;4.20;3.10;;;12.00;99.90;;;;;;5074506;28;20610;-56
2022/04/24 05:29:00;;;;;;;6.10;2.90;;;12.00;99.90;;;;;;5074484;28;20746;-56
2022/04/24 05:31:27;;;;;;;4.70;2.10;;;11.90;99.90;;;;;;5074426;28;20225;-57
2022/04/24 05:33:55;;;;;;;3.90;1.90;;;11.80;99.90;;;;;;5074674;28;20259;-57
2022/04/24 05:36:21;;;;;;;1.70;1.60;;;11.80;99.90;;;;;;5074145;28;20254;-57
2022/04/24 05:38:49;;;;;;;1.87;1.67;;;11.70;99.90;;;;;;5074502;28;20208;-57
2022/04/24 05:41:16;;;;;;;2.10;1.10;;;11.70;99.90;;;;;;5074234;28;20229;-57
2022/04/24 05:43:43;;;;;;;3.93;1.37;;;11.60;99.90;;;;;;5074256;28;20201;-56
2022/04/24 05:46:09;;;;;;;1.10;0.80;;;11.50;99.90;;;;;;5074240;28;20617;-57
2022/04/24 05:48:36;;;;;;;1.23;0.80;;;11.50;99.90;;;;;;5074500;28;20201;-56
2022/04/24 05:51:03;;;;;;;1.07;0.50;;;11.50;99.90;;;;;;5074183;28;20585;-56
2022/04/24 05:53:30;;;;;;;0.90;0.47;;;11.50;99.90;;;;;;5074316;28;20599;-55
2022/04/24 05:55:58;;;;;;;0.50;0.47;;;11.30;99.90;;;;;;5073883;28;20655;-56
2022/04/24 05:58:24;;;;;;;0.97;0.50;;;11.30;99.90;;;;;;5074382;28;20258;-56
2022/04/24 06:00:51;;;;;;;0.30;0.30;;;11.30;99.90;;;;;;5074153;28;20209;-56
2022/04/24 06:03:18;;;;;;;0.80;0.30;;;11.30;99.90;;;;;;5074238;28;20213;-56
2022/04/24 06:05:48;;;;;;;1.37;0.50;;;11.20;99.90;;;;;;5074128;28;20201;-56
2022/04/24 06:08:15;;;;;;;0.87;0.40;;;11.20;99.90;;;;;;5074222;28;20233;-56
2022/04/24 06:10:42;;;;;;;0.50;0.20;;;11.10;99.90;;;;;;5073958;28;20208;-56
2022/04/24 06:13:11;;;;;;;0.40;0.20;;;11.00;99.90;;;;;;5074348;28;20225;-56
2022/04/24 06:15:39;;;;;;;1.87;0.27;;;11.00;99.90;;;;;;5073562;28;20598;-56
2022/04/24 06:18:06;;;;;;;0.87;0.40;;;10.90;99.90;;;;;;5074043;28;20209;-56
2022/04/24 06:20:33;;;;;;;0.77;0.30;;;10.90;99.90;;;;;;5073765;28;20205;-56
2022/04/24 06:23:01;;;;;;;0.40;0.20;;;11.00;99.90;;;;;;5073512;28;20233;-55
2022/04/24 06:25:29;;;;;;;2.17;1.27;;;11.10;99.90;;;;;;5072448;28;20211;-56
2022/04/24 06:27:56;;;;;;;2.10;0.33;;;11.20;99.90;;;;;;5073343;28;20748;-56
2022/04/24 06:30:26;;;;;;;1.13;0.60;;;11.30;99.90;;;;;;5073537;28;20250;-56
2022/04/24 06:32:53;;;;;;;0.20;0.13;;;11.30;99.90;;;;;;5073483;28;20221;-56
2022/04/24 06:35:20;;;;;;;0.20;0.20;;;11.30;99.90;;;;;;5073265;28;20216;-56
2022/04/24 06:37:48;;;;;;;2.00;1.57;;;11.30;99.90;;;;;;5072983;28;20262;-56
2022/04/24 06:40:19;;;;;;;0.40;0.30;;;11.30;99.90;;;;;;5073681;28;20254;-56
2022/04/24 06:42:50;;;;;;;0.63;0.30;;;11.30;99.90;;;;;;5073287;28;20240;-56
2022/04/24 06:45:17;;;;;;;1.00;0.27;;;11.20;99.90;;;;;;5073250;28;20254;-56
2022/04/24 06:47:46;;;;;;;0.23;0.23;;;11.20;99.90;;;;;;5072896;28;20209;-56
2022/04/24 06:50:13;;;;;;;0.13;0.10;;;11.20;99.90;;;;;;5073427;28;20291;-57
2022/04/24 06:52:40;;;;;;;0.37;0.30;;;11.20;99.90;;;;;;5073191;28;20236;-57
2022/04/24 06:55:07;;;;;;;0.30;0.30;;;11.20;99.90;;;;;;5073152;28;20707;-57
2022/04/24 06:57:34;;;;;;;0.13;0.10;;;11.30;99.90;;;;;;5072865;28;20208;-56
2022/04/24 07:00:01;;;;;;;0.57;0.20;;;11.30;99.90;;;;;;5072851;28;20216;-56
2022/04/24 07:02:28;;;;;;;0.30;0.10;;;11.30;99.90;;;;;;5072631;28;20672;-58
2022/04/24 07:04:56;;;;;;;1.47;0.30;;;11.30;99.90;;;;;;5072703;28;20618;-56
2022/04/24 07:07:22;;;;;;;0.20;0.20;;;11.40;99.90;;;;;;5072731;28;20213;-57
2022/04/24 07:09:49;;;;;;;0.83;0.13;;;11.40;99.90;;;;;;5072828;28;20569;-57
2022/04/24 07:12:16;;;;;;;0.53;0.30;;;11.50;99.90;;;;;;5072678;28;20221;-59
2022/04/24 07:14:42;;;;;;;0.50;0.27;;;11.50;99.90;;;;;;5072738;28;20205;-58
2022/04/24 07:17:09;;;;;;;0.10;0.10;;;11.70;99.90;;;;;;5072195;28;20738;-57
2022/04/24 07:19:36;;;;;;;0.33;0.20;;;11.70;99.90;;;;;;5072639;28;20212;-57
2022/04/24 07:22:04;;;;;;;0.60;0.20;;;11.80;99.90;;;;;;5072426;28;20258;-57
2022/04/24 07:24:31;;;;;;;0.20;0.20;;;11.70;99.90;;;;;;5072554;28;20231;-58
2022/04/24 07:26:57;;;;;;;0.50;0.40;;;11.80;99.90;;;;;;5072184;28;20209;-57
2022/04/24 07:29:24;;;;;;;0.20;0.10;;;11.80;99.90;;;;;;5072484;28;20257;-56
2022/04/24 07:31:51;;;;;;;0.80;0.50;;;11.90;99.90;;;;;;5072123;28;20657;-57
2022/04/24 07:34:18;;;;;;;1.93;0.43;;;11.90;99.90;;;;;;5072425;28;20201;-57
2022/04/24 07:36:45;;;;;;;1.20;0.40;;;12.00;99.90;;;;;;5072494;28;20208;-57
2022/04/24 07:39:14;;;;;;;1.07;0.30;;;12.00;99.90;;;;;;5072310;28;20209;-58
2022/04/24 07:41:40;;;;;;;0.57;0.40;;;12.10;99.90;;;;;;5072257;28;20315;-57
2022/04/24 07:44:08;;;;;;;1.10;0.70;;;12.20;99.90;;;;;;5072397;28;20204;-58
2022/04/24 07:46:35;;;;;;;1.10;0.70;;;12.10;99.90;;;;;;5072110;28;20251;-57
2022/04/24 07:49:02;;;;;;;1.97;0.80;;;12.20;99.90;;;;;;5072256;28;20251;-57
2022/04/24 07:51:29;;;;;;;1.23;0.60;;;12.20;99.90;;;;;;5095515;22;20282;-60
2022/04/24 07:53:56;;;;;;;0.50;0.40;;;12.10;99.90;;;;;;5052183;28;20197;-60
2022/04/24 07:56:25;;;;;;;1.33;0.83;;;12.10;99.90;;;;;;5052069;28;20205;-60
2022/04/24 07:58:52;;;;;;;2.07;0.70;;;12.10;99.90;;;;;;5051974;28;20692;-59
2022/04/24 08:01:18;;;;;;;2.10;0.43;;;12.10;99.90;;;;;;5052284;28;20239;-60
2022/04/24 08:03:46;;;;;;;1.10;0.70;;;12.00;99.90;;;;;;5051848;28;20268;-59
2022/04/24 08:06:12;;;;;;;1.60;0.47;;;12.00;99.90;;;;;;5052056;28;20261;-60
2022/04/24 08:08:39;;;;;;;0.60;0.40;;;12.10;99.90;;;;;;5052102;28;20421;-60
2022/04/24 08:11:06;;;;;;;1.00;0.63;;;12.10;99.90;;;;;;5051980;28;20301;-61
2022/04/24 08:13:34;;;;;;;0.77;0.43;;;12.20;99.90;;;;;;5051777;28;20226;-59
2022/04/24 08:16:02;;;;;;;1.57;1.00;;;12.10;99.90;;;;;;5051947;28;20263;-60
2022/04/24 08:18:28;;;;;;;2.20;1.10;;;12.30;99.90;;;;;;5051810;28;20296;-60
2022/04/24 08:20:55;;;;;;;1.17;0.70;;;12.30;99.90;;;;;;5051768;28;20211;-61
2022/04/24 08:23:22;;;;;;;1.00;0.70;;;12.40;99.90;;;;;;5051541;28;20238;-59
2022/04/24 08:25:49;;;;;;;2.50;2.20;;;12.50;99.90;;;;;;5052005;28;20213;-60
2022/04/24 08:28:16;;;;;;;1.37;1.03;;;12.50;99.90;;;;;;5054028;28;20228;-59
2022/04/24 08:30:46;;;;;;;9.40;7.83;;;12.50;99.90;;;;;;5053687;28;20232;-59
2022/04/24 08:33:13;;;;;;;6.80;5.43;;;12.50;99.90;;;;;;5053006;28;20308;-60
2022/04/24 08:35:40;;;;;;;3.17;2.10;;;12.40;99.90;;;;;;5051685;28;20241;-60
2022/04/24 08:38:07;;;;;;;1.90;1.40;;;12.40;99.90;;;;;;5051439;28;20206;-58
2022/04/24 08:40:34;;;;;;;2.57;1.40;;;12.40;99.90;;;;;;5051541;28;20209;-58
2022/04/24 08:43:01;;;;;;;3.50;1.90;;;12.20;99.90;;;;;;5051303;28;20225;-60
2022/04/24 08:45:29;;;;;;;2.43;1.80;;;12.30;99.90;;;;;;5051477;28;20673;-59
2022/04/24 08:47:58;;;;;;;2.40;2.03;;;12.40;99.90;;;;;;5052141;28;20250;-59
2022/04/24 08:50:28;;;;;;;2.77;2.00;;;12.50;99.90;;;;;;5055328;28;20673;-59
2022/04/24 08:52:57;;;;;;;2.30;1.40;;;12.50;99.90;;;;;;5055010;28;20240;-59
2022/04/24 08:55:26;;;;;;;1.10;0.93;;;12.50;99.90;;;;;;5055194;28;20297;-60
2022/04/24 08:57:53;;;;;;;1.90;1.60;;;12.60;99.90;;;;;;5054877;28;20673;-60
2022/04/24 09:00:21;;;;;;;2.13;1.43;;;12.70;99.90;;;;;;5055081;28;20251;-59
2022/04/24 09:02:48;;;;;;;0.73;0.60;;;12.80;99.90;;;;;;5055177;28;20276;-60
2022/04/24 09:05:16;;;;;;;1.50;0.97;;;12.90;99.90;;;;;;5055446;28;20248;-62
2022/04/24 09:07:43;;;;;;;3.60;2.00;;;13.00;99.90;;;;;;5052511;28;20252;-58
2022/04/24 09:10:12;;;;;;;7.43;5.40;;;13.10;99.90;;;;;;5055095;28;20205;-59
2022/04/24 09:12:40;;;;;;;1.53;0.90;;;13.00;99.90;;;;;;5054896;28;20757;-58
2022/04/24 09:15:08;;;;;;;2.40;2.20;;;13.10;99.90;;;;;;5054782;28;20673;-59
2022/04/24 09:17:35;;;;;;;0.93;0.87;;;13.20;99.90;;;;;;5054220;28;20632;-56
2022/04/24 09:20:18;;;;;;;0.77;0.70;;;13.30;99.90;;;;;;5054391;28;20217;-57
2022/04/24 09:22:45;;;;;;;0.90;0.80;;;13.30;99.90;;;;;;5054623;28;20237;-58
2022/04/24 09:25:13;;;;;;;1.07;0.50;;;13.40;99.90;;;;;;5054454;28;20603;-59
2022/04/24 09:27:40;;;;;;;1.87;1.60;;;13.40;99.90;;;;;;5054501;28;20264;-58
2022/04/24 09:30:11;;;;;;;2.20;1.53;;;13.50;99.90;;;;;;5054410;28;20260;-58
2022/04/24 09:32:47;;;;;;;2.07;1.63;;;13.40;99.90;;;;;;5054469;28;20650;-58
2022/04/24 09:35:27;;;;;;;17.37;15.53;;;13.40;99.90;;;;;;5054421;28;20292;-56
2022/04/24 09:38:08;;;;;;;7.67;5.87;;;13.30;99.90;;;;;;5054096;28;20251;-56
2022/04/24 09:40:40;;;;;;;2.67;1.63;;;13.30;99.90;;;;;;5054403;28;20305;-56
2022/04/24 09:43:09;;;;;;;1.27;1.00;;;13.30;99.90;;;;;;5053861;28;20229;-56
2022/04/24 09:45:37;;;;;;;0.80;0.80;;;13.30;99.90;;;;;;5054377;28;20692;-55
2022/04/24 09:48:11;;;;;;;1.93;0.80;;;13.30;99.90;;;;;;5053921;28;20205;-55
2022/04/24 09:50:40;;;;;;;1.00;0.70;;;13.40;99.90;;;;;;5054124;28;20258;-57
2022/04/24 09:53:07;;;;;;;1.77;1.10;;;13.50;99.90;;;;;;5053955;28;20651;-58
2022/04/24 09:55:36;;;;;;;1.90;1.50;;;13.60;99.90;;;;;;5053624;28;20210;-57
2022/04/24 09:58:03;;;;;;;3.47;2.30;;;13.60;99.90;;;;;;5036209;28;20349;-57
2022/04/24 10:00:30;;;;;;;2.23;1.50;;;13.70;99.90;;;;;;5053986;28;20202;-57
2022/04/24 10:02:57;;;;;;;3.53;3.00;;;13.80;99.90;;;;;;5053851;28;20628;-59
2022/04/24 10:05:28;;;;;;;2.00;1.77;;;13.70;99.90;;;;;;5053938;28;20267;-60
2022/04/24 10:07:56;;;;;;;2.17;1.50;;;13.80;99.90;;;;;;5053501;28;20255;-58
2022/04/24 10:10:23;;;;;;;2.87;1.40;;;13.80;99.90;;;;;;5053647;28;20205;-58
2022/04/24 10:12:51;;;;;;;0.90;0.60;;;13.70;99.90;;;;;;5053798;28;20225;-57
2022/04/24 10:15:21;;;;;;;2.47;1.90;;;13.80;99.90;;;;;;5053817;28;20210;-58
2022/04/24 10:18:04;;;;;;;1.83;1.10;;;13.90;99.90;;;;;;5053441;28;20320;-57
2022/04/24 10:20:47;;;;;;;2.57;1.50;;;14.00;99.90;;;;;;5054278;28;20401;-59
2022/04/24 10:23:15;;;;;;;1.00;0.77;;;14.20;99.90;;;;;;5054014;28;20226;-60
2022/04/24 10:25:43;;;;;;;1.47;0.80;;;14.20;99.90;;;;;;5054084;28;20202;-61
2022/04/24 10:28:12;;;;;;;2.40;1.00;;;14.20;99.90;;;;;;5053821;28;20232;-61
2022/04/24 10:30:39;;;;;;;1.03;0.90;;;14.10;99.90;;;;;;5054083;28;20631;-60
2022/04/24 10:33:18;;;;;;;6.43;5.10;;;14.10;99.90;;;;;;5053307;28;20621;-62
2022/04/24 10:35:51;;;;;;;1.33;0.87;;;14.00;99.90;;;;;;5053637;28;20206;-61
2022/04/24 10:38:21;;;;;;;1.33;0.90;;;13.80;99.90;;;;;;5053345;28;20259;-60
2022/04/24 10:41:01;;;;;;;1.77;1.17;;;13.80;99.90;;;;;;5053499;28;20602;-60
2022/04/24 10:43:37;;;;;;;3.57;2.07;;;13.80;99.90;;;;;;5053053;28;20287;-60
2022/04/24 10:46:15;;;;;;;3.40;1.70;;;13.80;99.90;;;;;;5053380;28;20528;-61
2022/04/24 10:48:42;;;;;;;3.27;2.60;;;13.90;99.90;;;;;;5053491;28;20228;-60
2022/04/24 10:51:09;;;;;;;7.13;5.00;;;14.00;99.90;;;;;;5053369;28;20278;-60
2022/04/24 10:53:50;;;;;;;18.50;12.00;;;14.20;99.90;;;;;;5052941;28;20226;-60
2022/04/24 10:56:17;;;;;;;7.47;5.00;;;14.40;99.90;;;;;;5052500;28;20213;-62
2022/04/24 10:58:44;;;;;;;12.37;8.37;;;14.70;99.90;;;;;;5053327;28;20263;-61
2022/04/24 11:01:15;;;;;;;4.17;3.03;;;14.80;99.90;;;;;;5053085;28;20666;-63
2022/04/24 11:03:43;;;;;;;2.87;1.73;;;14.80;99.90;;;;;;5052991;28;20221;-61
2022/04/24 11:06:21;;;;;;;4.07;2.47;;;14.80;99.90;;;;;;5052479;28;20685;-61
2022/04/24 11:08:48;;;;;;;4.13;3.23;;;14.90;99.90;;;;;;5052552;28;20236;-61
2022/04/24 11:11:18;;;;;;;2.73;1.77;;;15.00;99.90;;;;;;5052663;28;20209;-61
2022/04/24 11:13:45;;;;;;;2.77;1.93;;;15.00;99.90;;;;;;5053056;28;20274;-58
2022/04/24 11:16:13;;;;;;;4.50;2.40;;;15.00;99.90;;;;;;5052334;28;20584;-58
2022/04/24 11:18:46;;;;;;;2.27;1.63;;;15.00;99.90;;;;;;5052432;28;20213;-58
2022/04/24 11:21:19;;;;;;;2.10;1.50;;;15.00;99.90;;;;;;5051391;28;20607;-59
2022/04/24 11:23:46;;;;;;;3.10;2.13;;;14.90;99.90;;;;;;5052696;28;20221;-56
2022/04/24 11:26:14;;;;;;;2.87;1.77;;;15.10;99.90;;;;;;5052417;28;20213;-58
2022/04/24 11:28:44;;;;;;;4.87;3.07;;;15.20;99.90;;;;;;5052499;28;20696;-58
2022/04/24 11:31:13;;;;;;;2.10;1.60;;;15.30;99.90;;;;;;5052706;28;20590;-61
2022/04/24 11:33:52;;;;;;;2.33;1.83;;;15.40;99.90;;;;;;5052427;28;20312;-58
2022/04/24 11:36:19;;;;;;;3.50;1.50;;;15.60;99.90;;;;;;5052110;28;20212;-62
2022/04/24 11:38:48;;;;;;;6.90;5.10;;;15.80;99.90;;;;;;5052383;28;20213;-57
2022/04/24 11:41:15;;;;;;;3.87;3.00;;;16.00;99.90;;;;;;5052403;28;20213;-58
2022/04/24 11:43:43;;;;;;;3.67;3.27;;;16.10;99.90;;;;;;5052149;28;20764;-58
2022/04/24 11:51:36;;;;;;;3.20;2.90;;;16.60;99.90;;;;;;5008210;28;20288;-60
2022/04/24 11:54:03;;;;;;;2.87;2.40;;;16.80;99.90;;;;;;5052261;28;20213;-57
2022/04/24 11:56:32;;;;;;;8.10;7.30;;;16.90;99.90;;;;;;5051728;28;20252;-58
2022/04/24 11:59:12;;;;;;;2.70;2.33;;;17.00;99.90;;;;;;5051902;28;20209;-56
2022/04/24 12:01:39;;;;;;;6.15;4.55;;;17.00;99.90;;;;;;5052092;28;20320;-58
2022/04/24 12:04:06;;;;;;;5.23;4.60;;;17.10;99.90;;;;;;5051907;28;20697;-62
2022/04/24 12:06:33;;;;;;;9.23;6.28;;;17.20;99.90;;;;;;5051853;28;20205;-60
2022/04/24 12:09:07;;;;;;;3.90;3.20;;;17.30;99.90;;;;;;5051179;28;20611;-60
2022/04/24 12:11:35;;;;;;;3.73;2.70;;;17.30;99.90;;;;;;5051973;28;20210;-58
2022/04/24 12:14:03;;;;;;;4.65;3.30;;;17.50;99.90;;;;;;5052090;28;20209;-58
2022/04/24 12:16:31;;;;;;;6.77;5.60;;;17.70;99.90;;;;;;5051342;28;20232;-56
2022/04/24 12:18:59;;;;;;;5.68;3.58;;;17.80;99.90;;;;;;5051531;28;20292;-57
2022/04/24 12:21:26;;;;;;;14.35;10.05;;;17.80;99.90;;;;;;5051109;28;20260;-58
2022/04/24 12:23:54;;;;;;;6.67;4.33;;;17.80;99.90;;;;;;5054215;28;20236;-57
2022/04/24 12:26:21;;;;;;;6.35;4.43;;;17.90;99.90;;;;;;5055552;28;20255;-57
2022/04/24 12:28:49;;;;;;;4.33;2.90;;;17.90;99.90;;;;;;5056244;28;20205;-57
2022/04/24 12:31:24;;;;;;;4.40;3.80;;;17.90;99.90;;;;;;5055835;28;20259;-57
2022/04/24 12:33:53;;;;;;;3.97;3.25;;;18.00;99.90;;;;;;5055381;28;20213;-55
2022/04/24 12:36:21;;;;;;;4.95;4.43;;;18.00;99.90;;;;;;5055055;28;20205;-56
2022/04/24 12:38:55;;;;;;;2.77;2.27;;;18.00;99.90;;;;;;5056046;28;20205;-57
2022/04/24 12:41:24;;;;;;;1.02;0.73;;;18.00;99.90;;;;;;5055317;28;20697;-57
2022/04/24 12:43:52;;;;;;;12.05;7.35;;;18.00;99.90;;;;;;5055544;28;20375;-57
2022/04/24 12:46:19;;;;;;;5.70;4.00;;;17.80;99.90;;;;;;5055325;28;20213;-56
2022/04/24 12:48:50;;;;;;;3.35;1.88;;;17.70;99.90;;;;;;5055396;28;20267;-57